createdAt,value
2023-02-14T00:00:48.622Z,16.90
2023-02-14T00:03:15.999Z,16.10
2023-02-14T00:05:42.720Z,15.20
2023-02-14T00:08:09.504Z,16.07
2023-02-14T00:10:36.232Z,16.30
2023-02-14T00:13:03.114Z,14.73
2023-02-14T00:15:29.911Z,20.23
2023-02-14T00:17:59.851Z,18.33
2023-02-14T00:20:27.979Z,18.27
2023-02-14T00:22:55.110Z,16.50
2023-02-14T00:25:22.052Z,14.00
2023-02-14T00:27:48.950Z,15.47
2023-02-14T00:30:15.784Z,19.80
2023-02-14T00:32:43.037Z,15.90
2023-02-14T00:35:10.484Z,18.00
2023-02-14T00:37:40.975Z,15.87
2023-02-14T00:40:08.276Z,16.23
2023-02-14T00:42:35.384Z,15.43
2023-02-14T00:45:02.165Z,16.63
2023-02-14T00:47:30.336Z,15.00
2023-02-14T00:50:02.635Z,16.67
2023-02-14T00:52:31.276Z,16.63
2023-02-14T00:54:58.468Z,14.03
2023-02-14T00:57:25.148Z,17.10
2023-02-14T00:59:51.819Z,16.57
2023-02-14T01:02:18.481Z,18.00
2023-02-14T01:04:45.251Z,18.63
2023-02-14T01:07:11.911Z,20.03
2023-02-14T01:09:38.518Z,18.03
2023-02-14T01:12:05.391Z,19.37
2023-02-14T01:14:32.098Z,15.00
2023-02-14T01:16:58.799Z,16.10
2023-02-14T01:19:25.471Z,17.83
2023-02-14T01:21:52.119Z,17.03
2023-02-14T01:24:22.601Z,15.77
2023-02-14T01:26:49.208Z,18.57
2023-02-14T01:29:16.048Z,16.73
2023-02-14T01:31:42.926Z,18.40
2023-02-14T01:34:09.563Z,20.33
2023-02-14T01:36:38.520Z,16.33
2023-02-14T01:39:07.892Z,16.43
2023-02-14T01:41:37.335Z,23.10
2023-02-14T01:44:16.802Z,20.27
2023-02-14T01:46:45.663Z,21.40
2023-02-14T01:49:20.166Z,20.40
2023-02-14T01:51:52.923Z,16.90
2023-02-14T01:54:22.510Z,20.40
2023-02-14T01:56:54.349Z,17.37
2023-02-14T01:59:26.472Z,19.87
2023-02-14T02:01:53.575Z,22.10
2023-02-14T02:04:30.078Z,19.57
2023-02-14T02:07:01.625Z,21.00
2023-02-14T02:09:39.334Z,22.53
2023-02-14T02:12:06.981Z,22.83
2023-02-14T02:14:34.243Z,21.30
2023-02-14T02:17:28.283Z,19.93
2023-02-14T02:20:13.800Z,18.77
2023-02-14T02:22:43.123Z,21.03
2023-02-14T02:25:47.089Z,20.57
2023-02-14T02:28:16.458Z,22.80
2023-02-14T02:31:14.218Z,20.33
2023-02-14T02:34:07.503Z,27.20
2023-02-14T02:36:55.222Z,22.67
2023-02-14T02:39:34.461Z,22.03
2023-02-14T02:42:18.403Z,21.97
2023-02-14T02:44:57.491Z,22.60
2023-02-14T02:47:31.660Z,20.53
2023-02-14T02:50:38.441Z,23.93
2023-02-14T02:53:30.274Z,19.40
2023-02-14T02:56:48.952Z,20.67
2023-02-14T02:59:22.888Z,23.33
2023-02-14T03:02:03.194Z,25.63
2023-02-14T03:04:49.970Z,20.83
2023-02-14T03:07:34.890Z,20.77
2023-02-14T03:10:19.317Z,24.70
2023-02-14T03:13:12.932Z,20.03
2023-02-14T03:15:52.089Z,19.93
2023-02-14T03:19:06.840Z,22.13
2023-02-14T03:21:59.370Z,22.13
2023-02-14T03:24:35.079Z,23.20
2023-02-14T03:27:38.745Z,23.10
2023-02-14T03:30:20.429Z,27.53
2023-02-14T03:33:00.237Z,25.53
2023-02-14T03:35:37.453Z,23.40
2023-02-14T03:38:11.420Z,22.87
2023-02-14T03:40:44.738Z,23.63
2023-02-14T03:43:19.068Z,23.10
2023-02-14T03:45:53.277Z,26.10
2023-02-14T03:48:24.004Z,23.47
2023-02-14T03:50:52.503Z,28.23
2023-02-14T03:53:24.854Z,23.03
2023-02-14T03:55:58.329Z,22.37
2023-02-14T03:58:30.251Z,26.27
2023-02-14T04:01:02.622Z,22.43
2023-02-14T04:03:32.207Z,21.87
2023-02-14T04:05:59.658Z,21.90
2023-02-14T04:08:29.682Z,24.13
2023-02-14T04:11:00.377Z,25.30
2023-02-14T04:13:27.523Z,23.67
2023-02-14T04:15:54.707Z,22.97
2023-02-14T04:18:39.772Z,24.20
2023-02-14T04:21:06.602Z,23.27
2023-02-14T04:23:33.308Z,26.33
2023-02-14T04:25:59.992Z,24.13
2023-02-14T04:28:26.620Z,23.13
2023-02-14T04:30:53.269Z,25.70
2023-02-14T04:33:19.916Z,25.37
2023-02-14T04:35:48.220Z,23.47
2023-02-14T04:38:15.966Z,22.23
2023-02-14T04:40:42.638Z,24.00
2023-02-14T04:43:09.309Z,23.47
2023-02-14T04:45:35.956Z,24.53
2023-02-14T04:48:02.541Z,22.10
2023-02-14T04:50:29.178Z,23.17
2023-02-14T04:52:55.961Z,24.97
2023-02-14T04:55:22.620Z,26.50
2023-02-14T04:57:49.263Z,23.60
2023-02-14T05:00:16.264Z,24.23
2023-02-14T05:02:42.918Z,29.63
2023-02-14T05:05:09.618Z,27.27
2023-02-14T05:07:36.280Z,25.67
2023-02-14T05:10:04.885Z,27.27
2023-02-14T05:12:32.094Z,25.10
2023-02-14T05:14:58.764Z,24.00
2023-02-14T05:17:25.431Z,26.10
2023-02-14T05:19:52.036Z,25.60
2023-02-14T05:22:18.724Z,29.33
2023-02-14T05:24:45.370Z,21.83
2023-02-14T05:27:11.999Z,26.37
2023-02-14T05:29:38.825Z,26.20
2023-02-14T05:32:05.459Z,25.20
2023-02-14T05:34:32.064Z,30.93
2023-02-14T05:36:58.672Z,26.40
2023-02-14T05:39:25.276Z,26.30
2023-02-14T05:41:51.909Z,26.53
2023-02-14T05:44:18.590Z,26.63
2023-02-14T05:46:45.176Z,27.77
2023-02-14T05:49:11.804Z,26.50
2023-02-14T05:51:38.391Z,25.67
2023-02-14T05:54:05.093Z,26.60
2023-02-14T05:56:31.698Z,25.30
2023-02-14T05:58:58.594Z,28.10
2023-02-14T06:01:25.160Z,27.63
2023-02-14T06:03:51.842Z,26.30
2023-02-14T06:06:18.467Z,25.90
2023-02-14T06:08:45.120Z,23.10
2023-02-14T06:11:11.834Z,23.17
2023-02-14T06:13:40.317Z,24.97
2023-02-14T06:16:07.069Z,22.43
2023-02-14T06:18:33.702Z,23.00
2023-02-14T06:21:00.733Z,24.20
2023-02-14T06:23:27.635Z,22.90
2023-02-14T06:25:54.330Z,27.13
2023-02-14T06:28:21.302Z,27.83
2023-02-14T06:30:47.999Z,24.50
2023-02-14T06:33:14.687Z,24.30
2023-02-14T06:35:41.463Z,23.60
2023-02-14T06:38:08.160Z,24.43
2023-02-14T06:40:34.831Z,27.07
2023-02-14T06:43:01.443Z,25.97
2023-02-14T06:45:28.050Z,24.53
2023-02-14T06:47:54.714Z,24.83
2023-02-14T06:50:21.335Z,22.67
2023-02-14T06:52:48.277Z,25.93
2023-02-14T06:55:14.954Z,27.40
2023-02-14T06:57:41.675Z,26.10
2023-02-14T07:00:10.072Z,23.90
2023-02-14T07:02:36.976Z,25.50
2023-02-14T07:05:04.382Z,28.03
2023-02-14T07:07:31.325Z,26.97
2023-02-14T07:09:57.983Z,26.87
2023-02-14T07:12:24.579Z,25.47
2023-02-14T07:14:51.219Z,26.53
2023-02-14T07:17:17.847Z,27.70
2023-02-14T07:19:44.426Z,25.37
2023-02-14T07:22:11.085Z,25.60
2023-02-14T07:24:37.709Z,26.20
2023-02-14T07:27:04.370Z,32.47
2023-02-14T07:29:30.972Z,21.33
2023-02-14T07:31:57.962Z,20.40
2023-02-14T07:34:24.716Z,18.90
2023-02-14T07:36:51.371Z,27.13
2023-02-14T07:39:17.984Z,25.50
2023-02-14T07:41:44.566Z,25.07
2023-02-14T07:44:11.679Z,24.40
2023-02-14T07:46:38.365Z,25.13
2023-02-14T07:49:04.998Z,25.00
2023-02-14T07:51:31.603Z,29.33
2023-02-14T07:53:58.305Z,31.83
2023-02-14T07:56:24.935Z,26.27
2023-02-14T07:58:51.616Z,26.87
2023-02-14T08:01:18.513Z,26.80
2023-02-14T08:03:49.222Z,28.73
2023-02-14T08:06:17.461Z,29.03
2023-02-14T08:08:45.980Z,27.33
2023-02-14T08:11:33.309Z,25.97
2023-02-14T08:13:59.898Z,27.33
2023-02-14T08:16:26.720Z,24.60
2023-02-14T08:18:53.381Z,26.07
2023-02-14T08:21:21.088Z,28.63
2023-02-14T08:23:47.742Z,28.77
2023-02-14T08:26:14.614Z,28.33
2023-02-14T08:28:41.323Z,27.43
2023-02-14T08:31:08.006Z,34.93
2023-02-14T08:33:34.714Z,30.77
2023-02-14T08:36:01.527Z,31.80
2023-02-14T08:38:29.531Z,27.43
2023-02-14T08:41:01.820Z,28.03
2023-02-14T08:43:29.305Z,28.60
2023-02-14T08:45:56.044Z,32.67
2023-02-14T08:48:23.496Z,34.30
2023-02-14T08:50:50.568Z,29.83
2023-02-14T08:53:17.250Z,34.13
2023-02-14T08:55:43.921Z,36.20
2023-02-14T08:58:10.845Z,31.87
2023-02-14T09:00:37.510Z,34.77
2023-02-14T09:03:04.402Z,34.60
2023-02-14T09:05:31.158Z,32.40
2023-02-14T09:07:57.829Z,38.73
2023-02-14T09:10:25.407Z,46.23
2023-02-14T09:12:52.660Z,37.20
2023-02-14T09:15:19.931Z,36.27
2023-02-14T09:17:47.603Z,37.63
2023-02-14T09:20:16.048Z,34.07
2023-02-14T09:22:43.480Z,32.93
2023-02-14T09:25:11.179Z,33.23
2023-02-14T09:27:37.891Z,39.43
2023-02-14T09:30:06.711Z,39.23
2023-02-14T09:32:33.884Z,36.73
2023-02-14T09:35:19.823Z,34.80
2023-02-14T09:38:05.398Z,36.77
2023-02-14T09:40:33.145Z,36.77
2023-02-14T09:43:07.306Z,36.43
2023-02-14T09:45:34.557Z,32.67
2023-02-14T09:48:07.569Z,35.00
2023-02-14T09:50:43.946Z,34.80
2023-02-14T09:53:33.166Z,28.03
2023-02-14T09:56:25.701Z,31.37
2023-02-14T09:59:07.605Z,25.77
2023-02-14T10:01:42.671Z,26.47
2023-02-14T10:04:31.073Z,27.80
2023-02-14T10:07:22.431Z,31.93
2023-02-14T10:10:11.684Z,29.17
2023-02-14T10:12:52.970Z,25.47
2023-02-14T10:15:32.379Z,28.80
2023-02-14T10:18:05.937Z,30.53
2023-02-14T10:20:38.776Z,27.83
2023-02-14T10:23:34.489Z,29.10
2023-02-14T10:26:04.344Z,30.63
2023-02-14T10:28:40.069Z,24.57
2023-02-14T10:31:23.964Z,23.77
2023-02-14T10:33:57.542Z,24.60
2023-02-14T10:36:48.176Z,23.53
2023-02-14T10:39:31.692Z,27.03
2023-02-14T10:42:09.530Z,27.87
2023-02-14T10:44:47.724Z,21.33
2023-02-14T10:47:24.336Z,30.00
2023-02-14T10:50:09.886Z,27.77
2023-02-14T10:52:44.714Z,34.53
2023-02-14T10:55:32.337Z,25.13
2023-02-14T10:58:02.979Z,33.13
2023-02-14T11:00:41.143Z,29.77
2023-02-14T11:03:10.793Z,30.53
2023-02-14T11:05:48.281Z,28.60
2023-02-14T11:08:38.803Z,31.43
2023-02-14T11:11:16.438Z,40.93
2023-02-14T11:13:43.270Z,33.57
2023-02-14T11:16:13.001Z,33.57
2023-02-14T11:18:41.137Z,31.93
2023-02-14T11:21:13.935Z,34.97
2023-02-14T11:23:46.223Z,35.93
2023-02-14T11:26:26.842Z,38.50
2023-02-14T11:29:00.244Z,53.57
2023-02-14T11:31:30.301Z,41.67
2023-02-14T11:33:58.584Z,37.50
2023-02-14T11:36:27.604Z,38.60
2023-02-14T11:39:21.850Z,36.10
2023-02-14T11:41:56.063Z,32.33
2023-02-14T11:44:26.180Z,38.57
2023-02-14T11:46:55.902Z,39.83
2023-02-14T11:49:28.386Z,34.63
2023-02-14T11:51:57.089Z,37.00
2023-02-14T11:54:34.829Z,39.07
2023-02-14T11:57:05.999Z,39.17
2023-02-14T11:59:37.204Z,39.27
2023-02-14T12:02:28.735Z,37.73
2023-02-14T12:05:27.237Z,38.50
2023-02-14T12:07:57.198Z,36.27
2023-02-14T12:10:28.963Z,34.37
2023-02-14T12:12:59.720Z,30.93
2023-02-14T12:15:28.492Z,42.90
2023-02-14T12:18:37.150Z,43.53
2023-02-14T12:21:21.550Z,36.13
2023-02-14T12:24:00.498Z,35.37
2023-02-14T12:27:05.549Z,37.03
2023-02-14T12:29:39.412Z,35.20
2023-02-14T12:32:18.400Z,36.07
2023-02-14T12:34:45.502Z,45.20
2023-02-14T12:37:38.012Z,37.47
2023-02-14T12:40:19.566Z,33.80
2023-02-14T12:42:55.251Z,37.07
2023-02-14T12:45:27.057Z,34.57
2023-02-14T12:48:06.117Z,40.80
2023-02-14T12:50:55.905Z,33.90
2023-02-14T12:53:38.331Z,41.73
2023-02-14T12:56:19.271Z,36.80
2023-02-14T12:58:58.067Z,33.50
2023-02-14T13:01:49.754Z,29.93
2023-02-14T13:04:48.176Z,37.73
2023-02-14T13:08:00.374Z,38.20
2023-02-14T13:10:45.403Z,40.97
2023-02-14T13:13:38.064Z,47.40
2023-02-14T13:16:23.651Z,43.90
2023-02-14T13:19:19.006Z,40.90
2023-02-14T13:21:47.533Z,38.57
2023-02-14T13:24:25.011Z,36.17
2023-02-14T13:26:56.575Z,37.73
2023-02-14T13:29:25.776Z,40.77
2023-02-14T13:31:58.528Z,42.20
2023-02-14T13:34:39.075Z,38.23
2023-02-14T13:37:10.432Z,41.40
2023-02-14T13:39:45.253Z,38.33
2023-02-14T13:42:12.980Z,37.47
2023-02-14T13:44:52.660Z,33.27
2023-02-14T13:47:22.102Z,39.47
2023-02-14T13:49:55.735Z,33.47
2023-02-14T13:52:42.918Z,40.10
2023-02-14T13:55:17.398Z,39.70
2023-02-14T13:57:45.158Z,44.50
2023-02-14T14:00:17.590Z,61.17
2023-02-14T14:02:48.916Z,61.47
2023-02-14T14:05:30.877Z,49.87
2023-02-14T14:08:36.562Z,43.20
2023-02-14T14:11:10.223Z,42.33
2023-02-14T14:13:39.895Z,39.53
2023-02-14T14:16:29.521Z,43.07
2023-02-14T14:18:56.301Z,43.20
2023-02-14T14:21:28.761Z,41.47
2023-02-14T14:24:20.578Z,47.97
2023-02-14T14:27:08.099Z,40.27
2023-02-14T14:29:41.161Z,36.67
2023-02-14T14:32:10.139Z,38.87
2023-02-14T14:34:37.149Z,38.83
2023-02-14T14:37:15.519Z,43.20
2023-02-14T14:39:42.255Z,43.23
2023-02-14T14:42:16.884Z,40.67
2023-02-14T14:44:55.979Z,40.97
2023-02-14T14:47:29.394Z,37.87
2023-02-14T14:50:10.162Z,37.67
2023-02-14T14:52:41.801Z,42.47
2023-02-14T14:55:16.011Z,40.33
2023-02-14T14:57:50.273Z,38.97
2023-02-14T15:00:24.929Z,38.90
2023-02-14T15:03:02.907Z,42.40
2023-02-14T15:05:44.327Z,35.77
2023-02-14T15:08:23.155Z,36.73
2023-02-14T15:10:57.919Z,37.03
2023-02-14T15:13:54.977Z,42.20
2023-02-14T15:16:26.212Z,37.13
2023-02-14T15:19:01.006Z,39.10
2023-02-14T15:21:28.551Z,42.57
2023-02-14T15:23:55.795Z,41.17
2023-02-14T15:26:32.459Z,38.13
2023-02-14T15:29:06.297Z,35.50
2023-02-14T15:31:38.347Z,39.60
2023-02-14T15:34:06.582Z,36.53
2023-02-14T15:36:35.265Z,47.23
2023-02-14T15:39:06.596Z,37.90
2023-02-14T15:41:33.908Z,41.03
2023-02-14T15:44:01.671Z,39.40
2023-02-14T15:46:37.119Z,48.87
2023-02-14T15:49:15.479Z,42.17
2023-02-14T15:51:43.292Z,46.13
2023-02-14T15:54:31.858Z,44.67
2023-02-14T15:56:58.945Z,40.80
2023-02-14T15:59:31.316Z,41.73
2023-02-14T16:02:06.130Z,39.47
2023-02-14T16:04:35.487Z,44.70
2023-02-14T16:07:23.764Z,49.23
2023-02-14T16:10:11.900Z,53.20
2023-02-14T16:12:42.094Z,40.13
2023-02-14T16:15:21.991Z,38.90
2023-02-14T16:17:49.522Z,42.00
2023-02-14T16:20:23.152Z,43.77
2023-02-14T16:22:50.583Z,39.83
2023-02-14T16:25:18.248Z,38.90
2023-02-14T16:27:46.049Z,37.40
2023-02-14T16:30:19.406Z,35.53
2023-02-14T16:32:51.621Z,39.27
2023-02-14T16:35:21.396Z,36.43
2023-02-14T16:37:50.776Z,38.67
2023-02-14T16:40:21.348Z,39.10
2023-02-14T16:42:48.392Z,41.77
2023-02-14T16:45:18.124Z,42.87
2023-02-14T16:47:49.217Z,42.23
2023-02-14T16:50:17.595Z,44.07
2023-02-14T16:52:47.616Z,45.23
2023-02-14T16:55:17.681Z,41.40
2023-02-14T16:57:47.628Z,40.10
2023-02-14T17:00:14.948Z,43.27
2023-02-14T17:02:44.184Z,40.43
2023-02-14T17:05:11.705Z,40.17
2023-02-14T17:07:41.863Z,45.80
2023-02-14T17:10:18.060Z,44.13
2023-02-14T17:12:47.268Z,45.20
2023-02-14T17:15:18.504Z,44.53
2023-02-14T17:17:47.441Z,41.70
2023-02-14T17:20:15.821Z,40.47
2023-02-14T17:22:42.595Z,46.97
2023-02-14T17:25:09.581Z,45.00
2023-02-14T17:27:36.799Z,45.63
2023-02-14T17:30:04.607Z,43.67
2023-02-14T17:32:35.117Z,50.30
2023-02-14T17:35:03.464Z,51.07
2023-02-14T17:37:31.991Z,50.67
2023-02-14T17:39:58.638Z,49.40
2023-02-14T17:42:25.361Z,43.10
2023-02-14T17:44:52.500Z,52.47
2023-02-14T17:47:19.710Z,44.87
2023-02-14T17:49:47.393Z,52.60
2023-02-14T17:52:15.639Z,51.13
2023-02-14T17:54:42.744Z,62.23
2023-02-14T17:57:09.955Z,65.00
2023-02-14T17:59:36.743Z,65.03
2023-02-14T18:02:03.693Z,69.33
2023-02-14T18:04:30.487Z,66.57
2023-02-14T18:06:57.335Z,56.57
2023-02-14T18:09:25.666Z,57.63
2023-02-14T18:11:52.536Z,61.10
2023-02-14T18:14:19.485Z,58.80
2023-02-14T18:16:46.359Z,60.53
2023-02-14T18:19:15.838Z,51.13
2023-02-14T18:21:44.651Z,53.67
2023-02-14T18:24:12.377Z,56.93
2023-02-14T18:26:40.595Z,56.00
2023-02-14T18:29:12.208Z,61.03
2023-02-14T18:31:41.780Z,57.00
2023-02-14T18:34:09.656Z,56.07
2023-02-14T18:36:38.504Z,59.73
2023-02-14T18:39:06.494Z,54.97
2023-02-14T18:41:33.431Z,56.53
2023-02-14T18:44:01.089Z,60.33
2023-02-14T18:46:31.295Z,56.67
2023-02-14T18:48:57.932Z,59.00
2023-02-14T18:51:27.684Z,66.13
2023-02-14T18:53:56.662Z,60.40
2023-02-14T18:56:29.768Z,66.43
2023-02-14T18:59:00.890Z,64.70
2023-02-14T19:01:33.133Z,59.33
2023-02-14T19:04:01.070Z,65.77
2023-02-14T19:06:30.041Z,58.93
2023-02-14T19:08:57.540Z,54.97
2023-02-14T19:11:28.068Z,67.93
2023-02-14T19:13:56.872Z,60.93
2023-02-14T19:16:29.496Z,55.13
2023-02-14T19:18:56.314Z,71.67
2023-02-14T19:21:30.341Z,62.60
2023-02-14T19:23:57.858Z,54.83
2023-02-14T19:26:32.712Z,60.93
2023-02-14T19:29:01.899Z,63.83
2023-02-14T19:31:29.362Z,60.20
2023-02-14T19:33:56.609Z,54.67
2023-02-14T19:36:24.336Z,66.63
2023-02-14T19:38:53.412Z,62.60
2023-02-14T19:41:25.742Z,62.43
2023-02-14T19:43:55.099Z,67.50
2023-02-14T19:46:21.942Z,64.13
2023-02-14T19:48:49.015Z,65.03
2023-02-14T19:51:22.150Z,70.73
2023-02-14T19:53:50.060Z,70.07
2023-02-14T19:56:22.363Z,75.83
2023-02-14T19:58:50.798Z,66.07
2023-02-14T20:01:36.303Z,70.00
2023-02-14T20:04:07.531Z,72.80
2023-02-14T20:06:34.373Z,69.83
2023-02-14T20:09:02.050Z,73.27
2023-02-14T20:11:36.238Z,75.73
2023-02-14T20:14:03.671Z,75.40
2023-02-14T20:16:32.761Z,69.23
2023-02-14T20:19:05.135Z,71.97
2023-02-14T20:21:31.910Z,62.37
2023-02-14T20:24:01.909Z,57.97
2023-02-14T20:26:30.765Z,67.83
2023-02-14T20:29:03.723Z,65.70
2023-02-14T20:31:32.132Z,69.80
2023-02-14T20:33:59.692Z,67.33
2023-02-14T20:36:26.626Z,76.07
2023-02-14T20:39:13.121Z,63.67
2023-02-14T20:41:40.248Z,64.50
2023-02-14T20:44:09.977Z,74.43
2023-02-14T20:46:36.761Z,67.50
2023-02-14T20:49:03.961Z,67.63
2023-02-14T20:51:30.866Z,71.87
2023-02-14T20:53:57.532Z,67.37
2023-02-14T20:56:24.302Z,62.23
2023-02-14T20:58:51.305Z,64.20
2023-02-14T21:01:21.239Z,69.13
2023-02-14T21:03:52.886Z,58.27
2023-02-14T21:06:22.687Z,65.70
2023-02-14T21:08:50.213Z,68.40
2023-02-14T21:11:19.907Z,61.53
2023-02-14T21:13:46.672Z,61.23
2023-02-14T21:16:16.613Z,65.47
2023-02-14T21:18:51.590Z,60.97
2023-02-14T21:21:20.578Z,73.20
2023-02-14T21:23:52.117Z,66.50
2023-02-14T21:26:20.058Z,56.03
2023-02-14T21:28:47.511Z,62.57
2023-02-14T21:31:17.622Z,59.53
2023-02-14T21:33:44.235Z,67.17
2023-02-14T21:36:14.239Z,57.13
2023-02-14T21:38:43.345Z,52.87
2023-02-14T21:41:18.669Z,66.07
2023-02-14T21:43:47.649Z,61.40
2023-02-14T21:46:17.262Z,72.73
2023-02-14T21:49:03.487Z,64.17
2023-02-14T21:51:31.399Z,58.90
2023-02-14T21:54:01.473Z,66.00
2023-02-14T21:56:28.634Z,53.57
2023-02-14T21:58:56.237Z,58.20
2023-02-14T22:01:26.203Z,59.43
2023-02-14T22:03:53.464Z,58.10
2023-02-14T22:06:21.297Z,60.73
2023-02-14T22:08:56.013Z,54.80
2023-02-14T22:11:26.554Z,63.03
2023-02-14T22:13:53.407Z,64.67
2023-02-14T22:16:21.805Z,58.10
2023-02-14T22:18:49.059Z,55.57
2023-02-14T22:21:19.687Z,54.03
2023-02-14T22:23:46.998Z,65.63
2023-02-14T22:26:25.857Z,64.40
2023-02-14T22:28:56.869Z,63.50
2023-02-14T22:31:25.345Z,54.27
2023-02-14T22:33:52.750Z,71.50
2023-02-14T22:36:20.214Z,63.80
2023-02-14T22:38:47.177Z,69.83
2023-02-14T22:41:19.309Z,66.00
2023-02-14T22:43:46.537Z,67.97
2023-02-14T22:46:19.728Z,57.83
2023-02-14T22:48:48.135Z,60.60
2023-02-14T22:51:23.973Z,66.67
2023-02-14T22:53:52.983Z,62.60
2023-02-14T22:56:23.406Z,59.93
2023-02-14T22:58:57.573Z,49.53
2023-02-14T23:01:24.931Z,61.53
2023-02-14T23:03:56.955Z,57.27
2023-02-14T23:06:28.607Z,53.07
2023-02-14T23:08:56.011Z,70.57
2023-02-14T23:11:28.608Z,54.93
2023-02-14T23:14:14.563Z,61.03
2023-02-14T23:17:00.330Z,51.13
2023-02-14T23:19:49.048Z,49.40
2023-02-14T23:22:27.711Z,53.27
2023-02-14T23:24:59.603Z,56.47
2023-02-14T23:27:36.014Z,55.63
2023-02-14T23:30:05.508Z,58.70
2023-02-14T23:32:32.375Z,60.93
2023-02-14T23:34:58.957Z,59.93
2023-02-14T23:37:25.804Z,49.83
2023-02-14T23:39:52.586Z,50.30
2023-02-14T23:42:19.231Z,44.80
2023-02-14T23:44:46.814Z,54.23
2023-02-14T23:47:14.560Z,51.53
2023-02-14T23:49:41.956Z,45.93
2023-02-14T23:52:11.523Z,53.27
2023-02-14T23:54:38.959Z,48.67
2023-02-14T23:57:07.307Z,47.57
2023-02-14T23:59:35.376Z,49.23
